createdAt,value
2019-03-28T00:02:13.970Z,7.20
2019-03-28T00:04:42.426Z,7.20
2019-03-28T00:07:10.896Z,7.20
2019-03-28T00:09:39.430Z,7.10
2019-03-28T00:12:07.924Z,7.20
2019-03-28T00:14:36.499Z,7.20
2019-03-28T00:17:04.963Z,7.20
2019-03-28T00:19:33.492Z,7.20
2019-03-28T00:22:02.035Z,7.20
2019-03-28T00:24:34.833Z,7.10
2019-03-28T00:27:03.297Z,7.20
2019-03-28T00:29:31.754Z,7.20
2019-03-28T00:32:00.450Z,7.20
2019-03-28T00:34:29.375Z,7.20
2019-03-28T00:36:57.841Z,7.20
2019-03-28T00:39:26.295Z,7.20
2019-03-28T00:41:55.127Z,7.20
2019-03-28T00:44:23.593Z,7.20
2019-03-28T00:46:52.078Z,7.20
2019-03-28T00:49:20.527Z,7.20
2019-03-28T00:51:48.987Z,7.20
2019-03-28T00:54:17.534Z,7.20
2019-03-28T00:56:47.603Z,7.20
2019-03-28T00:59:16.475Z,7.20
2019-03-28T01:01:44.938Z,7.30
2019-03-28T01:04:13.403Z,7.30
2019-03-28T01:06:41.859Z,7.30
2019-03-28T01:09:10.329Z,7.30
2019-03-28T01:11:38.852Z,7.30
2019-03-28T01:14:08.244Z,7.30
2019-03-28T01:16:36.835Z,7.30
2019-03-28T01:19:05.291Z,7.40
2019-03-28T01:21:33.778Z,7.30
2019-03-28T01:24:02.369Z,7.40
2019-03-28T01:26:30.899Z,7.40
2019-03-28T01:28:59.462Z,7.40
2019-03-28T01:31:27.910Z,7.40
2019-03-28T01:33:56.370Z,7.40
2019-03-28T01:36:24.890Z,7.40
2019-03-28T01:38:53.350Z,7.40
2019-03-28T01:41:21.810Z,7.40
2019-03-28T01:43:50.268Z,7.50
2019-03-28T01:46:18.727Z,7.40
2019-03-28T01:48:47.184Z,7.40
2019-03-28T01:51:15.715Z,7.40
2019-03-28T01:53:44.178Z,7.40
2019-03-28T01:56:12.679Z,7.40
2019-03-28T01:58:41.201Z,7.40
2019-03-28T02:01:09.735Z,7.40
2019-03-28T02:03:38.202Z,7.40
2019-03-28T02:06:06.734Z,7.40
2019-03-28T02:08:35.230Z,7.40
2019-03-28T02:11:03.694Z,7.40
2019-03-28T02:13:32.409Z,7.40
2019-03-28T02:16:00.867Z,7.30
2019-03-28T02:18:29.416Z,7.30
2019-03-28T02:20:57.908Z,7.30
2019-03-28T02:23:26.372Z,7.30
2019-03-28T02:25:54.932Z,7.30
2019-03-28T02:28:23.463Z,7.30
2019-03-28T02:30:51.927Z,7.30
2019-03-28T02:33:20.468Z,7.30
2019-03-28T02:35:49.002Z,7.30
2019-03-28T02:38:17.494Z,7.40
2019-03-28T02:40:45.948Z,7.30
2019-03-28T02:43:14.405Z,7.30
2019-03-28T02:45:42.958Z,7.40
2019-03-28T02:48:11.420Z,7.40
2019-03-28T02:50:39.887Z,7.40
2019-03-28T02:53:08.426Z,7.40
2019-03-28T02:55:37.155Z,7.40
2019-03-28T02:58:05.638Z,7.40
2019-03-28T03:00:34.103Z,7.40
2019-03-28T03:03:02.628Z,7.40
2019-03-28T03:05:31.248Z,7.40
2019-03-28T03:07:59.722Z,7.40
2019-03-28T03:10:28.195Z,7.40
2019-03-28T03:12:56.652Z,7.40
2019-03-28T03:15:25.114Z,7.40
2019-03-28T03:17:53.746Z,7.40
2019-03-28T03:20:22.197Z,7.40
2019-03-28T03:22:50.780Z,7.40
2019-03-28T03:25:19.308Z,7.40
2019-03-28T03:27:57.505Z,7.40
2019-03-28T03:30:18.274Z,7.40
2019-03-28T03:32:46.807Z,7.40
2019-03-28T03:35:15.758Z,7.40
2019-03-28T03:37:44.251Z,7.40
2019-03-28T03:40:13.646Z,7.40
2019-03-28T03:42:42.111Z,7.40
2019-03-28T03:45:10.795Z,7.30
2019-03-28T03:47:39.251Z,7.30
2019-03-28T03:50:08.628Z,7.30
2019-03-28T03:52:37.171Z,7.20
2019-03-28T03:55:07.072Z,7.20
2019-03-28T03:57:35.528Z,7.20
2019-03-28T04:00:06.315Z,7.20
2019-03-28T04:02:34.780Z,7.20
2019-03-28T04:05:03.879Z,7.20
2019-03-28T04:07:32.403Z,7.10
2019-03-28T04:10:00.862Z,7.10
2019-03-28T04:12:29.329Z,7.10
2019-03-28T04:14:57.871Z,7.20
2019-03-28T04:17:26.389Z,7.10
2019-03-28T04:19:54.858Z,7.10
2019-03-28T04:22:23.394Z,7.10
2019-03-28T04:24:51.922Z,7.10
2019-03-28T04:27:21.041Z,7.10
2019-03-28T04:29:50.105Z,7.10
2019-03-28T04:32:18.622Z,7.10
2019-03-28T04:34:47.079Z,7.20
2019-03-28T04:37:15.534Z,7.20
2019-03-28T04:39:44.002Z,7.20
2019-03-28T04:42:12.467Z,7.20
2019-03-28T04:44:40.964Z,7.20
2019-03-28T04:47:09.422Z,7.20
2019-03-28T04:49:38.012Z,7.20
2019-03-28T04:52:06.555Z,7.20
2019-03-28T04:54:35.005Z,7.20
2019-03-28T04:57:04.234Z,7.20
2019-03-28T04:59:32.842Z,7.20
2019-03-28T05:02:03.458Z,7.20
2019-03-28T05:04:31.477Z,7.20
2019-03-28T05:06:59.960Z,7.20
2019-03-28T05:09:28.485Z,7.20
2019-03-28T05:11:56.942Z,7.20
2019-03-28T05:14:25.407Z,7.20
2019-03-28T05:16:53.858Z,7.20
2019-03-28T05:19:23.227Z,7.30
2019-03-28T05:21:52.050Z,7.30
2019-03-28T05:24:20.517Z,7.30
2019-03-28T05:26:49.137Z,7.30
2019-03-28T05:29:17.589Z,7.40
2019-03-28T05:31:46.056Z,7.40
2019-03-28T05:34:14.514Z,7.40
2019-03-28T05:36:43.004Z,7.40
2019-03-28T05:39:11.464Z,7.40
2019-03-28T05:41:39.929Z,7.50
2019-03-28T05:44:08.417Z,7.50
2019-03-28T05:46:36.866Z,7.50
2019-03-28T05:49:05.329Z,7.50
2019-03-28T05:51:33.779Z,7.60
2019-03-28T05:54:02.525Z,7.60
2019-03-28T05:56:31.065Z,7.60
2019-03-28T05:59:10.271Z,7.60
2019-03-28T06:01:29.754Z,7.60
2019-03-28T06:03:58.223Z,7.60
2019-03-28T06:06:26.754Z,7.70
2019-03-28T06:08:55.226Z,7.70
2019-03-28T06:11:23.751Z,7.80
2019-03-28T06:13:52.295Z,7.90
2019-03-28T06:16:20.820Z,8.00
2019-03-28T06:18:49.282Z,8.00
2019-03-28T06:21:17.758Z,8.10
2019-03-28T06:23:46.215Z,8.10
2019-03-28T06:26:15.583Z,8.00
2019-03-28T06:28:44.375Z,8.10
2019-03-28T06:31:12.864Z,8.10
2019-03-28T06:33:41.381Z,8.10
2019-03-28T06:36:09.846Z,8.10
2019-03-28T06:38:38.310Z,8.10
2019-03-28T06:41:06.873Z,8.10
2019-03-28T06:43:35.399Z,8.10
2019-03-28T06:46:03.915Z,8.00
2019-03-28T06:48:32.405Z,8.00
2019-03-28T06:51:00.866Z,8.00
2019-03-28T06:53:36.943Z,8.00
2019-03-28T06:56:05.398Z,8.10
2019-03-28T06:58:33.962Z,8.10
2019-03-28T07:01:02.498Z,8.10
2019-03-28T07:03:30.959Z,8.20
2019-03-28T07:05:59.424Z,8.20
2019-03-28T07:08:27.897Z,8.20
2019-03-28T07:10:58.021Z,8.20
2019-03-28T07:13:26.626Z,8.30
2019-03-28T07:15:55.087Z,8.30
2019-03-28T07:18:23.560Z,8.40
2019-03-28T07:20:52.436Z,8.50
2019-03-28T07:23:21.270Z,8.60
2019-03-28T07:25:49.763Z,8.70
2019-03-28T07:28:18.218Z,8.90
2019-03-28T07:30:46.676Z,9.00
2019-03-28T07:33:15.242Z,9.10
2019-03-28T07:35:43.702Z,9.10
2019-03-28T07:38:12.155Z,9.10
2019-03-28T07:40:40.667Z,9.10
2019-03-28T07:43:09.127Z,9.10
2019-03-28T07:45:37.669Z,9.10
2019-03-28T07:48:06.141Z,9.10
2019-03-28T07:50:34.591Z,9.20
2019-03-28T07:53:03.122Z,9.20
2019-03-28T07:55:31.798Z,9.30
2019-03-28T07:58:00.443Z,9.40
2019-03-28T08:00:28.901Z,9.60
2019-03-28T08:02:58.547Z,9.60
2019-03-28T08:05:27.090Z,9.60
2019-03-28T08:07:55.632Z,9.50
2019-03-28T08:10:24.201Z,9.50
2019-03-28T08:12:52.668Z,9.50
2019-03-28T08:15:21.130Z,9.50
2019-03-28T08:17:49.584Z,9.50
2019-03-28T08:20:19.087Z,9.50
2019-03-28T08:22:47.535Z,9.60
2019-03-28T08:25:16.024Z,9.80
2019-03-28T08:27:44.686Z,9.90
2019-03-28T08:30:18.631Z,10.10
2019-03-28T08:32:44.210Z,10.20
2019-03-28T08:35:12.928Z,10.30
2019-03-28T08:37:42.171Z,10.40
2019-03-28T08:40:11.266Z,10.40
2019-03-28T08:42:39.728Z,10.40
2019-03-28T08:45:09.532Z,10.40
2019-03-28T08:47:38.098Z,10.40
2019-03-28T08:50:07.785Z,10.50
2019-03-28T08:52:36.320Z,10.50
2019-03-28T08:55:09.793Z,10.50
2019-03-28T08:57:37.245Z,10.50
2019-03-28T09:00:08.731Z,10.60
2019-03-28T09:02:37.222Z,10.60
2019-03-28T09:05:09.164Z,10.60
2019-03-28T09:07:37.707Z,10.60
2019-03-28T09:10:08.421Z,10.50
2019-03-28T09:12:37.405Z,10.50
2019-03-28T09:15:07.592Z,10.40
2019-03-28T09:17:36.127Z,10.40
2019-03-28T09:20:09.227Z,10.50
2019-03-28T09:22:39.100Z,10.60
2019-03-28T09:25:09.037Z,10.60
2019-03-28T09:27:37.509Z,10.70
2019-03-28T09:30:11.643Z,10.80
2019-03-28T09:32:59.508Z,10.80
2019-03-28T09:35:30.342Z,10.90
2019-03-28T09:37:58.855Z,11.10
2019-03-28T09:40:27.308Z,11.20
2019-03-28T09:42:56.746Z,11.30
2019-03-28T09:45:25.221Z,11.30
2019-03-28T09:47:53.675Z,11.30
2019-03-28T09:50:22.139Z,11.40
2019-03-28T09:52:50.891Z,11.40
2019-03-28T09:55:19.432Z,11.40
2019-03-28T09:57:47.891Z,11.50
2019-03-28T10:00:16.862Z,11.50
2019-03-28T10:02:45.314Z,11.60
2019-03-28T10:05:14.141Z,11.70
2019-03-28T10:07:42.607Z,11.80
2019-03-28T10:10:11.803Z,11.90
2019-03-28T10:12:40.294Z,12.00
2019-03-28T10:15:11.019Z,12.00
2019-03-28T10:17:42.368Z,12.00
2019-03-28T10:20:10.543Z,12.00
2019-03-28T10:22:39.098Z,11.90
2019-03-28T10:25:12.119Z,12.00
2019-03-28T10:27:38.999Z,11.80
2019-03-28T10:30:09.529Z,11.80
2019-03-28T10:32:37.988Z,11.70
2019-03-28T10:35:07.302Z,11.60
2019-03-28T10:37:35.913Z,11.50
2019-03-28T10:40:07.787Z,11.50
2019-03-28T10:42:36.254Z,11.40
2019-03-28T10:45:06.927Z,11.50
2019-03-28T10:47:35.383Z,11.50
2019-03-28T10:50:05.175Z,11.60
2019-03-28T10:52:33.720Z,11.70
2019-03-28T10:55:03.226Z,11.70
2019-03-28T10:57:32.299Z,11.90
2019-03-28T11:00:01.216Z,12.10
2019-03-28T11:02:29.674Z,12.20
2019-03-28T11:04:58.229Z,12.40
2019-03-28T11:07:26.786Z,12.60
2019-03-28T11:09:55.251Z,12.70
2019-03-28T11:12:23.977Z,12.70
2019-03-28T11:14:52.477Z,12.60
2019-03-28T11:17:21.765Z,12.50
2019-03-28T11:20:10.253Z,12.40
2019-03-28T11:22:38.782Z,12.40
2019-03-28T11:25:07.714Z,12.50
2019-03-28T11:27:36.255Z,12.50
2019-03-28T11:30:08.856Z,12.50
2019-03-28T11:32:37.314Z,12.40
2019-03-28T11:35:09.225Z,12.50
2019-03-28T11:37:37.925Z,12.50
2019-03-28T11:40:09.336Z,12.40
2019-03-28T11:42:38.403Z,12.50
2019-03-28T11:45:09.552Z,12.50
2019-03-28T11:47:38.706Z,12.70
2019-03-28T11:50:08.685Z,13.00
2019-03-28T11:52:38.068Z,13.60
2019-03-28T11:55:08.235Z,14.40
2019-03-28T11:57:37.267Z,15.40
2019-03-28T12:00:08.879Z,16.40
2019-03-28T12:02:56.683Z,17.10
2019-03-28T12:05:30.838Z,17.20
2019-03-28T12:07:59.312Z,16.70
2019-03-28T12:10:27.862Z,15.90
2019-03-28T12:12:56.324Z,15.20
2019-03-28T12:15:24.774Z,14.60
2019-03-28T12:17:53.235Z,14.10
2019-03-28T12:20:21.686Z,14.00
2019-03-28T12:22:50.156Z,14.30
2019-03-28T12:25:18.602Z,15.30
2019-03-28T12:27:47.100Z,16.60
2019-03-28T12:30:17.978Z,17.70
2019-03-28T12:32:46.963Z,18.90
2019-03-28T12:35:15.503Z,19.70
2019-03-28T12:37:44.005Z,19.70
2019-03-28T12:40:13.165Z,19.30
2019-03-28T12:42:41.694Z,18.90
2019-03-28T12:45:11.828Z,18.80
2019-03-28T12:47:42.849Z,18.60
2019-03-28T12:50:12.249Z,18.20
2019-03-28T12:52:40.808Z,17.80
2019-03-28T12:55:15.171Z,17.60
2019-03-28T12:57:43.617Z,17.40
2019-03-28T13:00:14.086Z,17.20
2019-03-28T13:02:42.804Z,17.40
2019-03-28T13:05:12.990Z,18.00
2019-03-28T13:07:41.446Z,18.20
2019-03-28T13:10:12.128Z,18.00
2019-03-28T13:12:48.044Z,17.40
2019-03-28T13:15:35.901Z,16.60
2019-03-28T13:18:04.694Z,16.10
2019-03-28T13:20:33.194Z,15.50
2019-03-28T13:23:01.689Z,15.20
2019-03-28T13:25:30.297Z,15.30
2019-03-28T13:27:58.843Z,15.70
2019-03-28T13:30:27.477Z,16.50
2019-03-28T13:32:55.939Z,17.50
2019-03-28T13:35:24.426Z,18.30
2019-03-28T13:37:52.892Z,18.80
2019-03-28T13:40:21.596Z,19.30
2019-03-28T13:42:52.855Z,19.80
2019-03-28T13:45:20.393Z,20.20
2019-03-28T13:47:57.677Z,20.70
2019-03-28T13:50:26.347Z,21.20
2019-03-28T13:52:54.808Z,21.10
2019-03-28T13:55:23.261Z,20.20
2019-03-28T13:57:52.325Z,19.40
2019-03-28T14:00:32.386Z,18.80
2019-03-28T14:03:01.244Z,18.60
2019-03-28T14:05:29.781Z,18.30
2019-03-28T14:07:58.251Z,18.40
2019-03-28T14:10:46.087Z,18.60
2019-03-28T14:13:14.612Z,18.70
2019-03-28T14:15:43.067Z,18.50
2019-03-28T14:18:11.521Z,18.10
2019-03-28T14:20:59.320Z,17.60
2019-03-28T14:23:27.781Z,17.10
2019-03-28T14:25:56.311Z,16.50
2019-03-28T14:28:24.849Z,16.30
2019-03-28T14:30:53.300Z,16.20
2019-03-28T14:33:21.767Z,16.20
2019-03-28T14:35:50.302Z,16.30
2019-03-28T14:38:18.822Z,16.40
2019-03-28T14:40:47.566Z,16.50
2019-03-28T14:43:16.056Z,16.30
2019-03-28T14:45:44.662Z,16.10
2019-03-28T14:48:13.221Z,15.70
2019-03-28T14:50:41.863Z,15.50
2019-03-28T14:53:10.440Z,15.50
2019-03-28T14:55:38.966Z,15.40
2019-03-28T14:58:08.142Z,15.50
2019-03-28T15:00:50.966Z,15.60
2019-03-28T15:03:26.176Z,15.70
2019-03-28T15:05:51.488Z,15.70
2019-03-28T15:08:20.078Z,15.80
2019-03-28T15:10:48.610Z,15.80
2019-03-28T15:13:17.156Z,15.90
2019-03-28T15:15:45.882Z,15.90
2019-03-28T15:18:14.424Z,15.90
2019-03-28T15:20:42.946Z,15.80
2019-03-28T15:23:11.398Z,15.70
2019-03-28T15:25:39.846Z,15.60
2019-03-28T15:28:08.329Z,15.50
2019-03-28T15:30:36.791Z,15.30
2019-03-28T15:33:05.249Z,15.20
2019-03-28T15:35:33.786Z,15.10
2019-03-28T15:38:21.591Z,15.00
2019-03-28T15:40:50.054Z,15.00
2019-03-28T15:43:18.503Z,14.90
2019-03-28T15:45:47.011Z,14.80
2019-03-28T15:48:15.597Z,14.60
2019-03-28T15:50:44.394Z,14.60
2019-03-28T15:53:23.827Z,14.50
2019-03-28T15:55:52.446Z,14.40
2019-03-28T15:58:23.416Z,14.30
2019-03-28T16:00:51.098Z,14.30
2019-03-28T16:03:19.650Z,14.10
2019-03-28T16:05:58.052Z,14.00
2019-03-28T16:08:18.298Z,13.90
2019-03-28T16:10:46.861Z,13.80
2019-03-28T16:13:15.326Z,13.50
2019-03-28T16:15:43.786Z,13.30
2019-03-28T16:18:12.290Z,13.10
2019-03-28T16:20:50.049Z,13.00
2019-03-28T16:23:19.487Z,12.80
2019-03-28T16:25:49.075Z,12.70
2019-03-28T16:28:17.539Z,12.50
2019-03-28T16:30:46.081Z,12.40
2019-03-28T16:33:14.554Z,12.20
2019-03-28T16:35:43.078Z,12.10
2019-03-28T16:38:11.591Z,11.90
2019-03-28T16:40:40.029Z,11.80
2019-03-28T16:43:08.619Z,11.70
2019-03-28T16:45:37.086Z,11.60
2019-03-28T16:48:05.643Z,11.50
2019-03-28T16:50:34.193Z,11.40
2019-03-28T16:53:03.158Z,11.30
2019-03-28T16:55:31.691Z,11.20
2019-03-28T16:58:00.149Z,11.10
2019-03-28T17:00:36.254Z,11.00
2019-03-28T17:03:05.561Z,10.90
2019-03-28T17:05:34.824Z,10.90
2019-03-28T17:08:04.758Z,10.80
2019-03-28T17:10:44.786Z,10.70
2019-03-28T17:13:14.410Z,10.70
2019-03-28T17:15:43.417Z,10.60
2019-03-28T17:18:12.015Z,10.50
2019-03-28T17:20:40.824Z,10.40
2019-03-28T17:23:09.888Z,10.40
2019-03-28T17:25:38.357Z,10.30
2019-03-28T17:28:07.418Z,10.20
2019-03-28T17:30:35.890Z,10.20
2019-03-28T17:33:04.420Z,10.10
2019-03-28T17:35:33.032Z,10.10
2019-03-28T17:38:01.502Z,10.00
2019-03-28T17:40:29.995Z,10.00
2019-03-28T17:42:58.449Z,9.90
2019-03-28T17:45:26.938Z,9.90
2019-03-28T17:47:55.484Z,9.80
2019-03-28T17:50:24.015Z,9.80
2019-03-28T17:52:53.671Z,9.70
2019-03-28T17:55:22.309Z,9.70
2019-03-28T17:57:52.097Z,9.60
2019-03-28T18:00:20.634Z,9.60
2019-03-28T18:02:49.093Z,9.50
2019-03-28T18:05:17.573Z,9.40
2019-03-28T18:07:46.024Z,9.40
2019-03-28T18:10:14.919Z,9.40
2019-03-28T18:12:43.413Z,9.30
2019-03-28T18:15:12.518Z,9.20
2019-03-28T18:17:41.039Z,9.20
2019-03-28T18:20:28.874Z,9.10
2019-03-28T18:22:57.502Z,9.00
2019-03-28T18:25:26.325Z,8.90
2019-03-28T18:27:55.046Z,8.90
2019-03-28T18:30:24.674Z,8.80
2019-03-28T18:32:53.160Z,8.80
2019-03-28T18:35:21.623Z,8.80
2019-03-28T18:37:50.235Z,8.70
2019-03-28T18:40:18.728Z,8.70
2019-03-28T18:42:47.263Z,8.70
2019-03-28T18:45:16.050Z,8.70
2019-03-28T18:47:44.540Z,8.60
2019-03-28T18:50:19.376Z,8.60
2019-03-28T18:52:47.903Z,8.50
2019-03-28T18:55:16.527Z,8.50
2019-03-28T18:57:44.981Z,8.40
2019-03-28T19:00:17.115Z,8.30
2019-03-28T19:02:45.682Z,8.30
2019-03-28T19:05:19.990Z,8.20
2019-03-28T19:07:44.401Z,8.20
2019-03-28T19:10:13.436Z,8.10
2019-03-28T19:12:41.915Z,8.20
2019-03-28T19:15:11.113Z,8.10
2019-03-28T19:17:39.767Z,8.00
2019-03-28T19:20:09.892Z,8.00
2019-03-28T19:22:38.691Z,8.00
2019-03-28T19:25:08.893Z,7.90
2019-03-28T19:27:38.835Z,7.90
2019-03-28T19:30:09.331Z,7.90
2019-03-28T19:32:37.803Z,7.90
2019-03-28T19:35:10.464Z,7.80
2019-03-28T19:37:40.015Z,7.80
2019-03-28T19:40:09.633Z,7.80
2019-03-28T19:42:38.907Z,7.70
2019-03-28T19:45:08.600Z,7.70
2019-03-28T19:47:37.070Z,7.70
2019-03-28T19:50:07.782Z,7.70
2019-03-28T19:52:36.626Z,7.60
2019-03-28T19:55:06.632Z,7.60
2019-03-28T19:57:35.321Z,7.60
2019-03-28T20:00:06.301Z,7.60
2019-03-28T20:02:34.753Z,7.60
2019-03-28T20:05:03.587Z,7.60
2019-03-28T20:07:32.206Z,7.50
2019-03-28T20:10:00.774Z,7.50
2019-03-28T20:12:29.295Z,7.40
2019-03-28T20:15:00.127Z,7.40
2019-03-28T20:17:30.854Z,7.40
2019-03-28T20:19:59.307Z,7.40
2019-03-28T20:22:27.770Z,7.40
2019-03-28T20:24:58.309Z,7.30
2019-03-28T20:27:26.416Z,7.30
2019-03-28T20:29:54.954Z,7.30
2019-03-28T20:32:23.869Z,7.30
2019-03-28T20:34:52.322Z,7.30
2019-03-28T20:37:20.824Z,7.30
2019-03-28T20:39:49.273Z,7.30
2019-03-28T20:42:17.798Z,7.20
2019-03-28T20:44:46.265Z,7.20
2019-03-28T20:47:14.909Z,7.20
2019-03-28T20:49:46.486Z,7.20
2019-03-28T20:52:13.611Z,7.10
2019-03-28T20:54:42.100Z,7.10
2019-03-28T20:57:10.560Z,7.10
2019-03-28T20:59:39.078Z,7.10
2019-03-28T21:02:07.592Z,7.10
2019-03-28T21:04:36.660Z,7.00
2019-03-28T21:07:05.115Z,7.00
2019-03-28T21:09:33.581Z,6.90
2019-03-28T21:12:02.197Z,6.90
2019-03-28T21:14:30.730Z,6.90
2019-03-28T21:16:59.250Z,6.80
2019-03-28T21:19:27.873Z,6.70
2019-03-28T21:21:56.326Z,6.70
2019-03-28T21:24:24.785Z,6.70
2019-03-28T21:26:53.336Z,6.60
2019-03-28T21:29:21.787Z,6.60
2019-03-28T21:31:51.298Z,6.60
2019-03-28T21:34:21.130Z,6.50
2019-03-28T21:36:49.920Z,6.50
2019-03-28T21:39:18.478Z,6.40
2019-03-28T21:41:46.951Z,6.40
2019-03-28T21:44:15.479Z,6.30
2019-03-28T21:46:43.983Z,6.30
2019-03-28T21:49:12.442Z,6.20
2019-03-28T21:51:40.914Z,6.20
2019-03-28T21:54:09.455Z,6.10
2019-03-28T21:56:41.227Z,6.00
2019-03-28T21:59:08.104Z,6.00
2019-03-28T22:01:36.599Z,5.90
2019-03-28T22:04:05.050Z,5.90
2019-03-28T22:06:42.722Z,5.80
2019-03-28T22:09:05.245Z,5.90
2019-03-28T22:11:34.458Z,5.80
2019-03-28T22:14:03.229Z,5.80
2019-03-28T22:16:31.814Z,5.70
2019-03-28T22:19:00.266Z,5.70
2019-03-28T22:21:28.727Z,5.70
2019-03-28T22:23:57.194Z,5.60
2019-03-28T22:26:25.656Z,5.60
2019-03-28T22:28:54.189Z,5.60
2019-03-28T22:31:22.641Z,5.60
2019-03-28T22:33:51.133Z,5.60
2019-03-28T22:36:19.593Z,5.60
2019-03-28T22:38:48.054Z,5.50
2019-03-28T22:41:16.591Z,5.50
2019-03-28T22:43:45.057Z,5.50
2019-03-28T22:46:13.604Z,5.50
2019-03-28T22:48:44.475Z,5.50
2019-03-28T22:51:12.247Z,5.40
2019-03-28T22:53:40.706Z,5.40
2019-03-28T22:56:09.162Z,5.40
2019-03-28T22:58:37.640Z,5.30
2019-03-28T23:01:06.177Z,5.30
2019-03-28T23:03:34.649Z,5.30
2019-03-28T23:06:03.110Z,5.30
2019-03-28T23:08:32.924Z,5.20
2019-03-28T23:11:01.804Z,5.20
2019-03-28T23:13:30.301Z,5.10
2019-03-28T23:15:58.756Z,5.10
2019-03-28T23:18:27.226Z,5.10
2019-03-28T23:20:56.314Z,5.00
2019-03-28T23:23:25.896Z,5.00
2019-03-28T23:25:54.575Z,5.00
2019-03-28T23:28:23.140Z,4.90
2019-03-28T23:30:51.683Z,4.90
2019-03-28T23:33:20.140Z,4.90
2019-03-28T23:35:48.691Z,4.80
2019-03-28T23:38:17.144Z,4.80
2019-03-28T23:40:45.655Z,4.70
2019-03-28T23:43:14.472Z,4.70
2019-03-28T23:45:42.997Z,4.70
2019-03-28T23:48:11.463Z,4.70
2019-03-28T23:50:39.905Z,4.60
2019-03-28T23:53:08.956Z,4.60
2019-03-28T23:55:37.952Z,4.60
2019-03-28T23:58:06.413Z,4.60
